PWSweather.com
Personal Weather Stations
Station Observations
DW1039
Liberty & Fairfield Townships, Hamilton, OH 45011

Liberty & Fairfield TownshipsHamilton, OH 45011

Lat: 39.3933, Lon: -84.477

Elevation: 780

Station Type: Davis Vantage Pro2 (Daytime Fan Aspirated)

http://www.lfweathercenter.com/

High Low Average
Temperature 79.2°F26.2°C 43.6°F6.4°C 58.7°F14.8°C
Dew Point 58.3°F14.6°C 39.2°F4.0°C 47.6°F8.7°C
Winds 21.0 mph 33.8 kmh Calm Calm 4.0 mph SE6.4 kmh SE
Wind Gusts 28.0 mph45.1 kmh -- 11.0 mph17.7 kmh
Humidity 89% 45% 69%
Pressure 30.03 in1016.9 mb 29.67 in1004.7 mb -
Precipitation 0.00 in0.0 mm - -
Hour Temp Dew Point Humidity Winds Wind Gusts Pressure Precip Precip Rate Daily Precip Total
12:00 AM 48.5°F9.2°C 40.6°F4.8°C 74% 6.0 mph E9.7 kmh E 12.0 mph19.3 kmh 30.00 in1015.9 mb 0.00 in0.0 mm 0.00 in/hr0.0 mm/hr 0.00 in0.0 mm
12:10 AM 48.3°F9.1°C 40.8°F4.9°C 75% 3.0 mph E4.8 kmh E 14.0 mph22.5 kmh 30.01 in1016.3 mb 0.00 in0.0 mm 0.00 in/hr0.0 mm/hr 0.00 in0.0 mm
12:20 AM 48.1°F8.9°C 40.9°F4.9°C 76% 4.0 mph NE6.4 kmh NE 7.0 mph11.3 kmh 30.00 in1015.9 mb 0.00 in0.0 mm 0.00 in/hr0.0 mm/hr 0.00 in0.0 mm
12:30 AM 48.0°F8.9°C 40.5°F4.7°C 75% Calm Calm 13.0 mph20.9 kmh 30.01 in1016.3 mb 0.00 in0.0 mm 0.00 in/hr0.0 mm/hr 0.00 in0.0 mm
12:40 AM 47.9°F8.8°C 40.7°F4.8°C 76% 2.0 mph NE3.2 kmh NE 8.0 mph12.9 kmh 30.03 in1016.9 mb 0.00 in0.0 mm 0.00 in/hr0.0 mm/hr 0.00 in0.0 mm
12:50 AM 47.8°F8.8°C 40.6°F4.8°C 76% Calm Calm 6.0 mph9.7 kmh 30.02 in1016.6 mb 0.00 in0.0 mm 0.00 in/hr0.0 mm/hr 0.00 in0.0 mm
01:00 AM 47.6°F8.7°C 40.1°F4.5°C 75% 1.0 mph NE1.6 kmh NE 4.0 mph6.4 kmh 30.03 in1016.9 mb 0.00 in0.0 mm 0.00 in/hr0.0 mm/hr 0.00 in0.0 mm
01:10 AM 47.2°F8.4°C 39.7°F4.3°C 75% 3.0 mph NE4.8 kmh NE 9.0 mph14.5 kmh 30.02 in1016.6 mb 0.00 in0.0 mm 0.00 in/hr0.0 mm/hr 0.00 in0.0 mm
01:20 AM 46.6°F8.1°C 39.8°F4.3°C 77% Calm Calm 7.0 mph11.3 kmh 30.00 in1015.9 mb 0.00 in0.0 mm 0.00 in/hr0.0 mm/hr 0.00 in0.0 mm
01:30 AM 46.3°F7.9°C 39.5°F4.2°C 77% Calm Calm 6.0 mph9.7 kmh 30.00 in1015.9 mb 0.00 in0.0 mm 0.00 in/hr0.0 mm/hr 0.00 in0.0 mm
01:40 AM 46.3°F7.9°C 39.2°F4.0°C 76% 7.0 mph SSE11.3 kmh SSE 7.0 mph11.3 kmh 30.02 in1016.6 mb 0.00 in0.0 mm 0.00 in/hr0.0 mm/hr 0.00 in0.0 mm
01:50 AM 46.5°F8.1°C 39.7°F4.3°C 77% 1.0 mph ESE1.6 kmh ESE 3.0 mph4.8 kmh 30.01 in1016.3 mb 0.00 in0.0 mm 0.00 in/hr0.0 mm/hr 0.00 in0.0 mm
02:00 AM 46.7°F8.2°C 39.9°F4.4°C 77% 1.0 mph ESE1.6 kmh ESE 3.0 mph4.8 kmh 30.01 in1016.3 mb 0.00 in0.0 mm 0.00 in/hr0.0 mm/hr 0.00 in0.0 mm
02:10 AM 46.8°F8.2°C 40.3°F4.6°C 78% 1.0 mph E1.6 kmh E 3.0 mph4.8 kmh 30.02 in1016.6 mb 0.00 in0.0 mm 0.00 in/hr0.0 mm/hr 0.00 in0.0 mm
02:20 AM 46.8°F8.2°C 40.0°F4.4°C 77% 3.0 mph ENE4.8 kmh ENE 5.0 mph8.0 kmh 30.02 in1016.6 mb 0.00 in0.0 mm 0.00 in/hr0.0 mm/hr 0.00 in0.0 mm
02:30 AM 46.7°F8.2°C 40.2°F4.6°C 78% Calm Calm 2.0 mph3.2 kmh 30.01 in1016.3 mb 0.00 in0.0 mm 0.00 in/hr0.0 mm/hr 0.00 in0.0 mm
02:40 AM 46.6°F8.1°C 40.8°F4.9°C 80% Calm Calm 3.0 mph4.8 kmh 29.99 in1015.6 mb 0.00 in0.0 mm 0.00 in/hr0.0 mm/hr 0.00 in0.0 mm
02:50 AM 46.5°F8.1°C 40.7°F4.8°C 80% Calm Calm 3.0 mph4.8 kmh 30.00 in1015.9 mb 0.00 in0.0 mm 0.00 in/hr0.0 mm/hr 0.00 in0.0 mm
03:00 AM 46.3°F7.9°C 40.8°F4.9°C 81% Calm Calm 7.0 mph11.3 kmh 29.98 in1015.2 mb 0.00 in0.0 mm 0.00 in/hr0.0 mm/hr 0.00 in0.0 mm
03:10 AM 46.2°F7.9°C 41.0°F5.0°C 82% 3.0 mph E4.8 kmh E 6.0 mph9.7 kmh 29.98 in1015.2 mb 0.00 in0.0 mm 0.00 in/hr0.0 mm/hr 0.00 in0.0 mm
03:20 AM 45.8°F7.7°C 41.3°F5.2°C 84% 1.0 mph E1.6 kmh E 6.0 mph9.7 kmh 29.97 in1014.9 mb 0.00 in0.0 mm 0.00 in/hr0.0 mm/hr 0.00 in0.0 mm
03:30 AM 45.7°F7.6°C 41.2°F5.1°C 84% 1.0 mph E1.6 kmh E 5.0 mph8.0 kmh 29.97 in1014.9 mb 0.00 in0.0 mm 0.00 in/hr0.0 mm/hr 0.00 in0.0 mm
03:40 AM 45.8°F7.7°C 41.6°F5.3°C 85% 1.0 mph N1.6 kmh N 6.0 mph9.7 kmh 29.99 in1015.6 mb 0.00 in0.0 mm 0.00 in/hr0.0 mm/hr 0.00 in0.0 mm
03:50 AM 45.5°F7.5°C 41.3°F5.2°C 85% 2.0 mph ENE3.2 kmh ENE 3.0 mph4.8 kmh 29.99 in1015.6 mb 0.00 in0.0 mm 0.00 in/hr0.0 mm/hr 0.00 in0.0 mm
04:00 AM 45.4°F7.4°C 41.5°F5.3°C 86% 1.0 mph NE1.6 kmh NE 5.0 mph8.0 kmh 29.99 in1015.6 mb 0.00 in0.0 mm 0.00 in/hr0.0 mm/hr 0.00 in0.0 mm
04:10 AM 45.3°F7.4°C 41.4°F5.2°C 86% Calm Calm 5.0 mph8.0 kmh 29.99 in1015.6 mb 0.00 in0.0 mm 0.00 in/hr0.0 mm/hr 0.00 in0.0 mm
04:20 AM 45.1°F7.3°C 41.2°F5.1°C 86% Calm Calm 4.0 mph6.4 kmh 29.98 in1015.2 mb 0.00 in0.0 mm 0.00 in/hr0.0 mm/hr 0.00 in0.0 mm
04:30 AM 45.2°F7.3°C 41.3°F5.2°C 86% 1.0 mph NNW1.6 kmh NNW 4.0 mph6.4 kmh 30.00 in1015.9 mb 0.00 in0.0 mm 0.00 in/hr0.0 mm/hr 0.00 in0.0 mm
04:40 AM 45.2°F7.3°C 41.3°F5.2°C 86% Calm Calm 3.0 mph4.8 kmh 29.99 in1015.6 mb 0.00 in0.0 mm 0.00 in/hr0.0 mm/hr 0.00 in0.0 mm
04:50 AM 45.1°F7.3°C 40.9°F4.9°C 85% Calm Calm 3.0 mph4.8 kmh 29.98 in1015.2 mb 0.00 in0.0 mm 0.00 in/hr0.0 mm/hr 0.00 in0.0 mm
05:00 AM 45.2°F7.3°C 41.0°F5.0°C 85% Calm Calm 1.0 mph1.6 kmh 29.99 in1015.6 mb 0.00 in0.0 mm 0.00 in/hr0.0 mm/hr 0.00 in0.0 mm
05:10 AM 44.8°F7.1°C 40.6°F4.8°C 85% Calm Calm 3.0 mph4.8 kmh 29.99 in1015.6 mb 0.00 in0.0 mm 0.00 in/hr0.0 mm/hr 0.00 in0.0 mm
05:20 AM 44.0°F6.7°C 40.4°F4.7°C 87% 2.0 mph NNE3.2 kmh NNE 6.0 mph9.7 kmh 29.99 in1015.6 mb 0.00 in0.0 mm 0.00 in/hr0.0 mm/hr 0.00 in0.0 mm
05:30 AM 43.6°F6.4°C 40.3°F4.6°C 88% Calm Calm 4.0 mph6.4 kmh 29.99 in1015.6 mb 0.00 in0.0 mm 0.00 in/hr0.0 mm/hr 0.00 in0.0 mm
05:40 AM 43.8°F6.6°C 40.5°F4.7°C 88% Calm Calm 4.0 mph6.4 kmh 29.98 in1015.2 mb 0.00 in0.0 mm 0.00 in/hr0.0 mm/hr 0.00 in0.0 mm
05:50 AM 44.0°F6.7°C 40.7°F4.8°C 88% 1.0 mph E1.6 kmh E 4.0 mph6.4 kmh 29.97 in1014.9 mb 0.00 in0.0 mm 0.00 in/hr0.0 mm/hr 0.00 in0.0 mm
06:00 AM 44.2°F6.8°C 40.9°F4.9°C 88% Calm Calm -- 29.98 in1015.2 mb 0.00 in0.0 mm 0.00 in/hr0.0 mm/hr 0.00 in0.0 mm
06:10 AM 44.3°F6.8°C 40.7°F4.8°C 87% Calm Calm 2.0 mph3.2 kmh 29.99 in1015.6 mb 0.00 in0.0 mm 0.00 in/hr0.0 mm/hr 0.00 in0.0 mm
06:20 AM 44.1°F6.7°C 40.8°F4.9°C 88% Calm Calm 2.0 mph3.2 kmh 29.98 in1015.2 mb 0.00 in0.0 mm 0.00 in/hr0.0 mm/hr 0.00 in0.0 mm
06:30 AM 44.3°F6.8°C 41.3°F5.2°C 89% Calm Calm 1.0 mph1.6 kmh 29.98 in1015.2 mb 0.00 in0.0 mm 0.00 in/hr0.0 mm/hr 0.00 in0.0 mm
06:40 AM 44.5°F6.9°C 41.5°F5.3°C 89% Calm Calm 3.0 mph4.8 kmh 29.98 in1015.2 mb 0.00 in0.0 mm 0.00 in/hr0.0 mm/hr 0.00 in0.0 mm
06:50 AM 44.5°F6.9°C 41.5°F5.3°C 89% 1.0 mph E1.6 kmh E 2.0 mph3.2 kmh 29.97 in1014.9 mb 0.00 in0.0 mm 0.00 in/hr0.0 mm/hr 0.00 in0.0 mm
07:00 AM 44.6°F7.0°C 41.6°F5.3°C 89% Calm Calm 3.0 mph4.8 kmh 29.97 in1014.9 mb 0.00 in0.0 mm 0.00 in/hr0.0 mm/hr 0.00 in0.0 mm
07:10 AM 44.6°F7.0°C 41.6°F5.3°C 89% 1.0 mph ESE1.6 kmh ESE 3.0 mph4.8 kmh 29.97 in1014.9 mb 0.00 in0.0 mm 0.00 in/hr0.0 mm/hr 0.00 in0.0 mm
07:20 AM 45.1°F7.3°C 41.8°F5.4°C 88% Calm Calm 4.0 mph6.4 kmh 29.96 in1014.6 mb 0.00 in0.0 mm 0.00 in/hr0.0 mm/hr 0.00 in0.0 mm
07:30 AM 45.6°F7.6°C 42.0°F5.6°C 87% 5.0 mph ESE8.0 kmh ESE 5.0 mph8.0 kmh 29.95 in1014.2 mb 0.00 in0.0 mm 0.00 in/hr0.0 mm/hr 0.00 in0.0 mm
07:40 AM 46.1°F7.8°C 42.5°F5.8°C 87% Calm Calm 3.0 mph4.8 kmh 29.95 in1014.2 mb 0.00 in0.0 mm 0.00 in/hr0.0 mm/hr 0.00 in0.0 mm
07:50 AM 46.4°F8.0°C 42.5°F5.8°C 86% Calm Calm 2.0 mph3.2 kmh 29.95 in1014.2 mb 0.00 in0.0 mm 0.00 in/hr0.0 mm/hr 0.00 in0.0 mm
08:00 AM 46.5°F8.1°C 42.6°F5.9°C 86% 1.0 mph ESE1.6 kmh ESE 5.0 mph8.0 kmh 29.95 in1014.2 mb 0.00 in0.0 mm 0.00 in/hr0.0 mm/hr 0.00 in0.0 mm
08:10 AM 47.3°F8.5°C 43.3°F6.3°C 86% Calm Calm 2.0 mph3.2 kmh 29.95 in1014.2 mb 0.00 in0.0 mm 0.00 in/hr0.0 mm/hr 0.00 in0.0 mm
08:20 AM 48.2°F9.0°C 43.6°F6.4°C 84% Calm Calm 4.0 mph6.4 kmh 29.94 in1013.9 mb 0.00 in0.0 mm 0.00 in/hr0.0 mm/hr 0.00 in0.0 mm
08:30 AM 49.4°F9.7°C 44.1°F6.7°C 82% Calm Calm 6.0 mph9.7 kmh 29.94 in1013.9 mb 0.00 in0.0 mm 0.00 in/hr0.0 mm/hr 0.00 in0.0 mm
08:40 AM 49.9°F9.9°C 44.0°F6.7°C 80% 2.0 mph SE3.2 kmh SE 7.0 mph11.3 kmh 29.93 in1013.5 mb 0.00 in0.0 mm 0.00 in/hr0.0 mm/hr 0.00 in0.0 mm
08:50 AM 51.5°F10.8°C 45.5°F7.5°C 80% 3.0 mph SE4.8 kmh SE 6.0 mph9.7 kmh 29.93 in1013.5 mb 0.00 in0.0 mm 0.00 in/hr0.0 mm/hr 0.00 in0.0 mm
09:00 AM 51.7°F10.9°C 45.4°F7.4°C 79% Calm Calm 6.0 mph9.7 kmh 29.93 in1013.5 mb 0.00 in0.0 mm 0.00 in/hr0.0 mm/hr 0.00 in0.0 mm
09:10 AM 52.1°F11.2°C 45.5°F7.5°C 78% 2.0 mph SSE3.2 kmh SSE 4.0 mph6.4 kmh 29.93 in1013.5 mb 0.00 in0.0 mm 0.00 in/hr0.0 mm/hr 0.00 in0.0 mm
09:20 AM 53.5°F11.9°C 46.1°F7.8°C 76% 1.0 mph S1.6 kmh S 6.0 mph9.7 kmh 29.92 in1013.2 mb 0.00 in0.0 mm 0.00 in/hr0.0 mm/hr 0.00 in0.0 mm
09:30 AM 54.9°F12.7°C 46.4°F8.0°C 73% 3.0 mph S4.8 kmh S 10.0 mph16.1 kmh 29.92 in1013.2 mb 0.00 in0.0 mm 0.00 in/hr0.0 mm/hr 0.00 in0.0 mm
09:40 AM 55.8°F13.2°C 47.3°F8.5°C 73% 1.0 mph S1.6 kmh S 10.0 mph16.1 kmh 29.91 in1012.9 mb 0.00 in0.0 mm 0.00 in/hr0.0 mm/hr 0.00 in0.0 mm
09:50 AM 55.8°F13.2°C 45.8°F7.7°C 69% Calm Calm 14.0 mph22.5 kmh 29.91 in1012.9 mb 0.00 in0.0 mm 0.00 in/hr0.0 mm/hr 0.00 in0.0 mm
10:00 AM 56.4°F13.6°C 46.4°F8.0°C 69% 5.0 mph ESE8.0 kmh ESE 13.0 mph20.9 kmh 29.90 in1012.5 mb 0.00 in0.0 mm 0.00 in/hr0.0 mm/hr 0.00 in0.0 mm
10:10 AM 57.2°F14.0°C 46.8°F8.2°C 68% 4.0 mph S6.4 kmh S 15.0 mph24.1 kmh 29.90 in1012.5 mb 0.00 in0.0 mm 0.00 in/hr0.0 mm/hr 0.00 in0.0 mm
10:20 AM 57.7°F14.3°C 47.2°F8.4°C 68% 3.0 mph S4.8 kmh S 15.0 mph24.1 kmh 29.89 in1012.2 mb 0.00 in0.0 mm 0.00 in/hr0.0 mm/hr 0.00 in0.0 mm
10:30 AM 58.6°F14.8°C 47.7°F8.7°C 67% 12.0 mph SE19.3 kmh SE 16.0 mph25.7 kmh 29.88 in1011.9 mb 0.00 in0.0 mm 0.00 in/hr0.0 mm/hr 0.00 in0.0 mm
10:40 AM 59.1°F15.1°C 48.6°F9.2°C 68% 2.0 mph SSE3.2 kmh SSE 10.0 mph16.1 kmh 29.88 in1011.9 mb 0.00 in0.0 mm 0.00 in/hr0.0 mm/hr 0.00 in0.0 mm
10:50 AM 60.2°F15.7°C 48.8°F9.3°C 66% Calm Calm 15.0 mph24.1 kmh 29.88 in1011.9 mb 0.00 in0.0 mm 0.00 in/hr0.0 mm/hr 0.00 in0.0 mm
11:00 AM 60.7°F15.9°C 48.5°F9.2°C 64% 10.0 mph S16.1 kmh S 13.0 mph20.9 kmh 29.86 in1011.2 mb 0.00 in0.0 mm 0.00 in/hr0.0 mm/hr 0.00 in0.0 mm
11:10 AM 61.1°F16.2°C 48.8°F9.3°C 64% 7.0 mph SSE11.3 kmh SSE 15.0 mph24.1 kmh 29.86 in1011.2 mb 0.00 in0.0 mm 0.00 in/hr0.0 mm/hr 0.00 in0.0 mm
11:20 AM 61.9°F16.6°C 49.2°F9.6°C 63% 2.0 mph S3.2 kmh S 16.0 mph25.7 kmh 29.85 in1010.8 mb 0.00 in0.0 mm 0.00 in/hr0.0 mm/hr 0.00 in0.0 mm
11:30 AM 61.8°F16.6°C 49.5°F9.7°C 64% 5.0 mph SSE8.0 kmh SSE 12.0 mph19.3 kmh 29.85 in1010.8 mb 0.00 in0.0 mm 0.00 in/hr0.0 mm/hr 0.00 in0.0 mm
11:40 AM 63.3°F17.4°C 50.5°F10.3°C 63% 4.0 mph S6.4 kmh S 13.0 mph20.9 kmh 29.84 in1010.5 mb 0.00 in0.0 mm 0.00 in/hr0.0 mm/hr 0.00 in0.0 mm
11:50 AM 64.4°F18.0°C 50.7°F10.4°C 61% 5.0 mph S8.0 kmh S 15.0 mph24.1 kmh 29.84 in1010.5 mb 0.00 in0.0 mm 0.00 in/hr0.0 mm/hr 0.00 in0.0 mm
12:00 PM 65.3°F18.5°C 52.4°F11.3°C 63% 5.0 mph SE8.0 kmh SE 12.0 mph19.3 kmh 29.84 in1010.5 mb 0.00 in0.0 mm 0.00 in/hr0.0 mm/hr 0.00 in0.0 mm
12:10 PM 66.7°F19.3°C 53.3°F11.8°C 62% 1.0 mph S1.6 kmh S 11.0 mph17.7 kmh 29.84 in1010.5 mb 0.00 in0.0 mm 0.00 in/hr0.0 mm/hr 0.00 in0.0 mm
12:20 PM 66.6°F19.2°C 53.2°F11.8°C 62% Calm Calm 13.0 mph20.9 kmh 29.83 in1010.2 mb 0.00 in0.0 mm 0.00 in/hr0.0 mm/hr 0.00 in0.0 mm
12:30 PM 67.6°F19.8°C 54.1°F12.3°C 62% 7.0 mph SSE11.3 kmh SSE 11.0 mph17.7 kmh 29.82 in1009.8 mb 0.00 in0.0 mm 0.00 in/hr0.0 mm/hr 0.00 in0.0 mm
12:40 PM 68.8°F20.4°C 54.8°F12.7°C 61% 6.0 mph SW9.7 kmh SW 10.0 mph16.1 kmh 29.82 in1009.8 mb 0.00 in0.0 mm 0.00 in/hr0.0 mm/hr 0.00 in0.0 mm
12:50 PM 69.5°F20.8°C 54.6°F12.6°C 59% 4.0 mph S6.4 kmh S 9.0 mph14.5 kmh 29.81 in1009.5 mb 0.00 in0.0 mm 0.00 in/hr0.0 mm/hr 0.00 in0.0 mm
01:00 PM 71.0°F21.7°C 56.9°F13.8°C 61% 3.0 mph SW4.8 kmh SW 14.0 mph22.5 kmh 29.80 in1009.1 mb 0.00 in0.0 mm 0.00 in/hr0.0 mm/hr 0.00 in0.0 mm
01:10 PM 72.1°F22.3°C 57.0°F13.9°C 59% 7.0 mph SSW11.3 kmh SSW 13.0 mph20.9 kmh 29.78 in1008.5 mb 0.00 in0.0 mm 0.00 in/hr0.0 mm/hr 0.00 in0.0 mm
01:20 PM 73.2°F22.9°C 56.1°F13.4°C 55% 10.0 mph SSW16.1 kmh SSW 16.0 mph25.7 kmh 29.78 in1008.5 mb 0.00 in0.0 mm 0.00 in/hr0.0 mm/hr 0.00 in0.0 mm
01:30 PM 74.1°F23.4°C 57.4°F14.1°C 56% 4.0 mph SW6.4 kmh SW 11.0 mph17.7 kmh 29.78 in1008.5 mb 0.00 in0.0 mm 0.00 in/hr0.0 mm/hr 0.00 in0.0 mm
01:40 PM 75.0°F23.9°C 57.3°F14.1°C 54% 3.0 mph S4.8 kmh S 18.0 mph29.0 kmh 29.77 in1008.1 mb 0.00 in0.0 mm 0.00 in/hr0.0 mm/hr 0.00 in0.0 mm
01:50 PM 75.3°F24.1°C 57.5°F14.2°C 54% 7.0 mph WSW11.3 kmh WSW 21.0 mph33.8 kmh 29.76 in1007.8 mb 0.00 in0.0 mm 0.00 in/hr0.0 mm/hr 0.00 in0.0 mm
02:00 PM 75.3°F24.1°C 57.0°F13.9°C 53% 8.0 mph WSW12.9 kmh WSW 17.0 mph27.4 kmh 29.76 in1007.8 mb 0.00 in0.0 mm 0.00 in/hr0.0 mm/hr 0.00 in0.0 mm
02:10 PM 75.8°F24.3°C 57.5°F14.2°C 53% 6.0 mph WSW9.7 kmh WSW 18.0 mph29.0 kmh 29.74 in1007.1 mb 0.00 in0.0 mm 0.00 in/hr0.0 mm/hr 0.00 in0.0 mm
02:20 PM 75.7°F24.3°C 57.4°F14.1°C 53% 7.0 mph SSW11.3 kmh SSW 23.0 mph37.0 kmh 29.74 in1007.1 mb 0.00 in0.0 mm 0.00 in/hr0.0 mm/hr 0.00 in0.0 mm
02:30 PM 75.8°F24.3°C 56.9°F13.8°C 52% 21.0 mph S33.8 kmh S 24.0 mph38.6 kmh 29.73 in1006.8 mb 0.00 in0.0 mm 0.00 in/hr0.0 mm/hr 0.00 in0.0 mm
02:40 PM 76.7°F24.8°C 58.3°F14.6°C 53% 4.0 mph SW6.4 kmh SW 19.0 mph30.6 kmh 29.73 in1006.8 mb 0.00 in0.0 mm 0.00 in/hr0.0 mm/hr 0.00 in0.0 mm
02:50 PM 77.0°F25.0°C 57.5°F14.2°C 51% 3.0 mph SW4.8 kmh SW 24.0 mph38.6 kmh 29.73 in1006.8 mb 0.00 in0.0 mm 0.00 in/hr0.0 mm/hr 0.00 in0.0 mm
03:00 PM 77.4°F25.2°C 56.8°F13.8°C 49% 12.0 mph S19.3 kmh S 24.0 mph38.6 kmh 29.72 in1006.4 mb 0.00 in0.0 mm 0.00 in/hr0.0 mm/hr 0.00 in0.0 mm
03:10 PM 77.9°F25.5°C 56.7°F13.7°C 48% 12.0 mph WSW19.3 kmh WSW 25.0 mph40.2 kmh 29.72 in1006.4 mb 0.00 in0.0 mm 0.00 in/hr0.0 mm/hr 0.00 in0.0 mm
03:20 PM 77.9°F25.5°C 56.1°F13.4°C 47% 7.0 mph S11.3 kmh S 27.0 mph43.5 kmh 29.71 in1006.1 mb 0.00 in0.0 mm 0.00 in/hr0.0 mm/hr 0.00 in0.0 mm
03:30 PM 79.2°F26.2°C 57.8°F14.3°C 48% 5.0 mph SW8.0 kmh SW 14.0 mph22.5 kmh 29.70 in1005.8 mb 0.00 in0.0 mm 0.00 in/hr0.0 mm/hr 0.00 in0.0 mm
03:40 PM 78.4°F25.8°C 57.7°F14.3°C 49% 12.0 mph WSW19.3 kmh WSW 28.0 mph45.1 kmh 29.70 in1005.8 mb 0.00 in0.0 mm 0.00 in/hr0.0 mm/hr 0.00 in0.0 mm
03:50 PM 78.3°F25.7°C 57.6°F14.2°C 49% 21.0 mph SW33.8 kmh SW 22.0 mph35.4 kmh 29.69 in1005.4 mb 0.00 in0.0 mm 0.00 in/hr0.0 mm/hr 0.00 in0.0 mm
04:00 PM 78.5°F25.8°C 57.8°F14.3°C 49% 20.0 mph SSW32.2 kmh SSW 20.0 mph32.2 kmh 29.69 in1005.4 mb 0.00 in0.0 mm 0.00 in/hr0.0 mm/hr 0.00 in0.0 mm
04:10 PM 78.6°F25.9°C 56.7°F13.7°C 47% 12.0 mph SW19.3 kmh SW 20.0 mph32.2 kmh 29.69 in1005.4 mb 0.00 in0.0 mm 0.00 in/hr0.0 mm/hr 0.00 in0.0 mm
04:20 PM 78.4°F25.8°C 57.1°F13.9°C 48% 6.0 mph WSW9.7 kmh WSW 23.0 mph37.0 kmh 29.69 in1005.4 mb 0.00 in0.0 mm 0.00 in/hr0.0 mm/hr 0.00 in0.0 mm
04:30 PM 78.0°F25.6°C 56.7°F13.7°C 48% 9.0 mph SW14.5 kmh SW 17.0 mph27.4 kmh 29.68 in1005.1 mb 0.00 in0.0 mm 0.00 in/hr0.0 mm/hr 0.00 in0.0 mm
04:40 PM 77.9°F25.5°C 57.2°F14.0°C 49% 7.0 mph WSW11.3 kmh WSW 19.0 mph30.6 kmh 29.68 in1005.1 mb 0.00 in0.0 mm 0.00 in/hr0.0 mm/hr 0.00 in0.0 mm
04:50 PM 78.3°F25.7°C 56.4°F13.6°C 47% 7.0 mph SSW11.3 kmh SSW 28.0 mph45.1 kmh 29.67 in1004.7 mb 0.00 in0.0 mm 0.00 in/hr0.0 mm/hr 0.00 in0.0 mm
05:00 PM 78.5°F25.8°C 56.0°F13.3°C 46% 13.0 mph SSW20.9 kmh SSW 19.0 mph30.6 kmh 29.67 in1004.7 mb 0.00 in0.0 mm 0.00 in/hr0.0 mm/hr 0.00 in0.0 mm
05:10 PM 78.3°F25.7°C 55.2°F12.9°C 45% 7.0 mph SSW11.3 kmh SSW 23.0 mph37.0 kmh 29.67 in1004.7 mb 0.00 in0.0 mm 0.00 in/hr0.0 mm/hr 0.00 in0.0 mm
05:20 PM 78.4°F25.8°C 55.9°F13.3°C 46% 4.0 mph WSW6.4 kmh WSW 14.0 mph22.5 kmh 29.67 in1004.7 mb 0.00 in0.0 mm 0.00 in/hr0.0 mm/hr 0.00 in0.0 mm
05:30 PM 78.2°F25.7°C 55.1°F12.8°C 45% 15.0 mph NW24.1 kmh NW 21.0 mph33.8 kmh 29.67 in1004.7 mb 0.00 in0.0 mm 0.00 in/hr0.0 mm/hr 0.00 in0.0 mm
05:40 PM 77.9°F25.5°C 55.5°F13.1°C 46% 5.0 mph WSW8.0 kmh WSW 20.0 mph32.2 kmh 29.67 in1004.7 mb 0.00 in0.0 mm 0.00 in/hr0.0 mm/hr 0.00 in0.0 mm
05:50 PM 77.5°F25.3°C 55.1°F12.8°C 46% 3.0 mph WSW4.8 kmh WSW 15.0 mph24.1 kmh 29.67 in1004.7 mb 0.00 in0.0 mm 0.00 in/hr0.0 mm/hr 0.00 in0.0 mm
06:00 PM 76.9°F24.9°C 55.2°F12.9°C 47% 6.0 mph SSW9.7 kmh SSW 13.0 mph20.9 kmh 29.67 in1004.7 mb 0.00 in0.0 mm 0.00 in/hr0.0 mm/hr 0.00 in0.0 mm
06:10 PM 76.5°F24.7°C 55.4°F13.0°C 48% 3.0 mph SW4.8 kmh SW 12.0 mph19.3 kmh 29.67 in1004.7 mb 0.00 in0.0 mm 0.00 in/hr0.0 mm/hr 0.00 in0.0 mm
06:20 PM 76.3°F24.6°C 55.2°F12.9°C 48% 9.0 mph SSW14.5 kmh SSW 16.0 mph25.7 kmh 29.67 in1004.7 mb 0.00 in0.0 mm 0.00 in/hr0.0 mm/hr 0.00 in0.0 mm
06:30 PM 76.2°F24.6°C 54.5°F12.5°C 47% 4.0 mph SW6.4 kmh SW 20.0 mph32.2 kmh 29.68 in1005.1 mb 0.00 in0.0 mm 0.00 in/hr0.0 mm/hr 0.00 in0.0 mm
06:40 PM 75.9°F24.4°C 54.8°F12.7°C 48% 1.0 mph WSW1.6 kmh WSW 12.0 mph19.3 kmh 29.69 in1005.4 mb 0.00 in0.0 mm 0.00 in/hr0.0 mm/hr 0.00 in0.0 mm
06:50 PM 75.6°F24.2°C 55.1°F12.8°C 49% 3.0 mph SW4.8 kmh SW 12.0 mph19.3 kmh 29.69 in1005.4 mb 0.00 in0.0 mm 0.00 in/hr0.0 mm/hr 0.00 in0.0 mm
07:00 PM 75.1°F23.9°C 55.2°F12.9°C 50% 2.0 mph SW3.2 kmh SW 11.0 mph17.7 kmh 29.68 in1005.1 mb 0.00 in0.0 mm 0.00 in/hr0.0 mm/hr 0.00 in0.0 mm
07:10 PM 66.6°F19.2°C 52.3°F11.3°C 60% 5.0 mph WNW8.0 kmh WNW 31.0 mph49.9 kmh 29.72 in1006.4 mb 0.05 in1.3 mm 0.30 in/hr7.6 mm/hr 0.05 in1.3 mm
07:20 PM 62.6°F17.0°C 53.8°F12.1°C 73% 11.0 mph W17.7 kmh W 15.0 mph24.1 kmh 29.72 in1006.4 mb 0.08 in2.0 mm 0.18 in/hr4.6 mm/hr 0.08 in2.0 mm
07:30 PM 61.9°F16.6°C 54.3°F12.4°C 76% 3.0 mph W4.8 kmh W 13.0 mph20.9 kmh 29.75 in1007.5 mb 0.10 in2.5 mm 0.12 in/hr3.0 mm/hr 0.10 in2.5 mm
07:40 PM 60.9°F16.1°C 54.7°F12.6°C 80% 5.0 mph WNW8.0 kmh WNW 9.0 mph14.5 kmh 29.75 in1007.5 mb 0.13 in3.3 mm 0.18 in/hr4.6 mm/hr 0.13 in3.3 mm
07:50 PM 60.2°F15.7°C 55.4°F13.0°C 84% 1.0 mph WSW1.6 kmh WSW 9.0 mph14.5 kmh 29.75 in1007.5 mb 0.15 in3.8 mm 0.12 in/hr3.0 mm/hr 0.15 in3.8 mm
08:00 PM 60.3°F15.7°C 56.1°F13.4°C 86% Calm Calm 4.0 mph6.4 kmh 29.75 in1007.5 mb 0.16 in4.1 mm 0.01 in/hr0.3 mm/hr 0.16 in4.1 mm
08:10 PM 60.5°F15.8°C 56.3°F13.5°C 86% 2.0 mph WSW3.2 kmh WSW 11.0 mph17.7 kmh 29.75 in1007.5 mb 0.13 in3.3 mm 0.00 in/hr0.0 mm/hr 0.16 in4.1 mm
08:20 PM 60.7°F15.9°C 56.8°F13.8°C 87% 4.0 mph W6.4 kmh W 12.0 mph19.3 kmh 29.76 in1007.8 mb 0.11 in2.8 mm 0.00 in/hr0.0 mm/hr 0.16 in4.1 mm
08:30 PM 60.5°F15.8°C 56.9°F13.8°C 88% Calm Calm 3.0 mph4.8 kmh 29.75 in1007.5 mb 0.10 in2.5 mm 0.00 in/hr0.0 mm/hr 0.16 in4.1 mm
08:40 PM 60.5°F15.8°C 57.3°F14.1°C 89% 4.0 mph WSW6.4 kmh WSW 5.0 mph8.0 kmh 29.76 in1007.8 mb 0.08 in2.0 mm 0.00 in/hr0.0 mm/hr 0.16 in4.1 mm
08:50 PM 60.4°F15.8°C 56.8°F13.8°C 88% 6.0 mph WNW9.7 kmh WNW 6.0 mph9.7 kmh 29.76 in1007.8 mb 0.06 in1.5 mm 0.00 in/hr0.0 mm/hr 0.16 in4.1 mm
09:00 PM 60.2°F15.7°C 57.0°F13.9°C 89% 5.0 mph W8.0 kmh W 9.0 mph14.5 kmh 29.77 in1008.1 mb 0.06 in1.5 mm 0.00 in/hr0.0 mm/hr 0.16 in4.1 mm
09:10 PM 60.4°F15.8°C 56.8°F13.8°C 88% 2.0 mph W3.2 kmh W 6.0 mph9.7 kmh 29.77 in1008.1 mb 0.06 in1.5 mm 0.00 in/hr0.0 mm/hr 0.16 in4.1 mm
09:20 PM 60.1°F15.6°C 56.9°F13.8°C 89% Calm Calm 6.0 mph9.7 kmh 29.77 in1008.1 mb 0.04 in1.0 mm 0.00 in/hr0.0 mm/hr 0.16 in4.1 mm
09:30 PM 60.0°F15.6°C 56.8°F13.8°C 89% 4.0 mph W6.4 kmh W 5.0 mph8.0 kmh 29.77 in1008.1 mb 0.03 in0.8 mm 0.00 in/hr0.0 mm/hr 0.16 in4.1 mm
09:40 PM 60.0°F15.6°C 56.8°F13.8°C 89% Calm Calm 7.0 mph11.3 kmh 29.77 in1008.1 mb 0.03 in0.8 mm 0.00 in/hr0.0 mm/hr 0.16 in4.1 mm
09:50 PM 60.0°F15.6°C 56.8°F13.8°C 89% Calm Calm 4.0 mph6.4 kmh 29.76 in1007.8 mb 0.02 in0.5 mm 0.00 in/hr0.0 mm/hr 0.16 in4.1 mm
10:10 PM 58.9°F14.9°C 56.0°F13.3°C 90% Calm Calm -- 29.78 in1008.5 mb 0.00 in0.0 mm 0.00 in/hr0.0 mm/hr 0.16 in4.1 mm
10:20 PM 58.5°F14.7°C 55.9°F13.3°C 91% Calm Calm 7.0 mph11.3 kmh 29.78 in1008.5 mb 0.00 in0.0 mm 0.00 in/hr0.0 mm/hr 0.16 in4.1 mm
10:30 PM 58.9°F14.9°C 56.3°F13.5°C 91% Calm Calm 2.0 mph3.2 kmh 29.79 in1008.8 mb 0.00 in0.0 mm 0.00 in/hr0.0 mm/hr 0.16 in4.1 mm
10:40 PM 58.5°F14.7°C 55.9°F13.3°C 91% 3.0 mph NNE4.8 kmh NNE 11.0 mph17.7 kmh 29.79 in1008.8 mb 0.00 in0.0 mm 0.00 in/hr0.0 mm/hr 0.16 in4.1 mm
10:50 PM 57.2°F14.0°C 54.0°F12.2°C 89% 5.0 mph NE8.0 kmh NE 5.0 mph8.0 kmh 29.80 in1009.1 mb 0.00 in0.0 mm 0.00 in/hr0.0 mm/hr 0.16 in4.1 mm
11:00 PM 56.6°F13.7°C 53.4°F11.9°C 89% 2.0 mph N3.2 kmh N 10.0 mph16.1 kmh 29.81 in1009.5 mb 0.00 in0.0 mm 0.00 in/hr0.0 mm/hr 0.16 in4.1 mm
11:10 PM 56.4°F13.6°C 52.9°F11.6°C 88% 2.0 mph NW3.2 kmh NW 7.0 mph11.3 kmh 29.81 in1009.5 mb 0.00 in0.0 mm 0.00 in/hr0.0 mm/hr 0.16 in4.1 mm
11:20 PM 56.3°F13.5°C 52.8°F11.6°C 88% 1.0 mph N1.6 kmh N 3.0 mph4.8 kmh 29.82 in1009.8 mb 0.00 in0.0 mm 0.00 in/hr0.0 mm/hr 0.16 in4.1 mm
11:30 PM 56.2°F13.4°C 52.7°F11.5°C 88% 3.0 mph N4.8 kmh N 3.0 mph4.8 kmh 29.82 in1009.8 mb 0.00 in0.0 mm 0.00 in/hr0.0 mm/hr 0.16 in4.1 mm
11:40 PM 55.9°F13.3°C 52.1°F11.2°C 87% 4.0 mph N6.4 kmh N 5.0 mph8.0 kmh 29.83 in1010.2 mb 0.00 in0.0 mm 0.00 in/hr0.0 mm/hr 0.16 in4.1 mm
11:51 PM 55.3°F12.9°C 51.5°F10.8°C 87% 1.0 mph NE1.6 kmh NE 6.0 mph9.7 kmh 29.83 in1010.2 mb 0.00 in0.0 mm 0.00 in/hr0.0 mm/hr 0.16 in4.1 mm